sensor_id;sensor_type;location;lat;lon;timestamp;temperature;humidity
16663;DHT22;8445;51.270;9.434;2024-03-08T00:01:21;0.30;64.70
16663;DHT22;8445;51.270;9.434;2024-03-08T00:03:47;0.20;64.50
16663;DHT22;8445;51.270;9.434;2024-03-08T00:06:13;0.20;64.20
16663;DHT22;8445;51.270;9.434;2024-03-08T00:08:39;0.20;64.40
16663;DHT22;8445;51.270;9.434;2024-03-08T00:11:05;0.20;64.70
16663;DHT22;8445;51.270;9.434;2024-03-08T00:13:31;0.20;64.70
16663;DHT22;8445;51.270;9.434;2024-03-08T00:15:57;0.20;65.00
16663;DHT22;8445;51.270;9.434;2024-03-08T00:18:23;0.20;65.70
16663;DHT22;8445;51.270;9.434;2024-03-08T00:20:49;0.20;65.90
16663;DHT22;8445;51.270;9.434;2024-03-08T00:23:15;0.30;65.80
16663;DHT22;8445;51.270;9.434;2024-03-08T00:25:41;0.30;65.50
16663;DHT22;8445;51.270;9.434;2024-03-08T00:28:07;0.30;65.30
16663;DHT22;8445;51.270;9.434;2024-03-08T00:30:33;0.30;65.90
16663;DHT22;8445;51.270;9.434;2024-03-08T00:32:58;0.30;66.00
16663;DHT22;8445;51.270;9.434;2024-03-08T00:35:25;0.30;65.90
16663;DHT22;8445;51.270;9.434;2024-03-08T00:37:52;0.30;66.00
16663;DHT22;8445;51.270;9.434;2024-03-08T00:40:18;0.30;65.90
16663;DHT22;8445;51.270;9.434;2024-03-08T00:42:44;0.30;66.00
16663;DHT22;8445;51.270;9.434;2024-03-08T00:45:11;0.30;65.80
16663;DHT22;8445;51.270;9.434;2024-03-08T00:47:37;0.30;65.80
16663;DHT22;8445;51.270;9.434;2024-03-08T00:50:03;0.30;65.50
16663;DHT22;8445;51.270;9.434;2024-03-08T00:52:29;0.20;65.20
16663;DHT22;8445;51.270;9.434;2024-03-08T00:54:56;0.20;65.20
16663;DHT22;8445;51.270;9.434;2024-03-08T00:57:22;0.20;65.10
16663;DHT22;8445;51.270;9.434;2024-03-08T00:59:48;0.10;65.40
16663;DHT22;8445;51.270;9.434;2024-03-08T01:02:14;0.10;65.20
16663;DHT22;8445;51.270;9.434;2024-03-08T01:04:40;0.00;65.30
16663;DHT22;8445;51.270;9.434;2024-03-08T01:07:06;0.00;65.00
16663;DHT22;8445;51.270;9.434;2024-03-08T01:09:32;0.00;64.80
16663;DHT22;8445;51.270;9.434;2024-03-08T01:11:57;0.00;64.80
16663;DHT22;8445;51.270;9.434;2024-03-08T01:14:24;0.00;64.80
16663;DHT22;8445;51.270;9.434;2024-03-08T01:16:56;-0.10;64.60
16663;DHT22;8445;51.270;9.434;2024-03-08T01:19:22;-0.10;64.80
16663;DHT22;8445;51.270;9.434;2024-03-08T01:21:49;-0.10;65.20
16663;DHT22;8445;51.270;9.434;2024-03-08T01:24:15;-0.10;65.20
16663;DHT22;8445;51.270;9.434;2024-03-08T01:26:41;-0.10;65.30
16663;DHT22;8445;51.270;9.434;2024-03-08T01:29:07;-0.10;65.90
16663;DHT22;8445;51.270;9.434;2024-03-08T01:31:34;-0.10;66.20
16663;DHT22;8445;51.270;9.434;2024-03-08T01:34:02;-0.10;66.50
16663;DHT22;8445;51.270;9.434;2024-03-08T01:36:28;-0.10;66.10
16663;DHT22;8445;51.270;9.434;2024-03-08T01:38:54;-0.10;65.90
16663;DHT22;8445;51.270;9.434;2024-03-08T01:41:20;-0.20;65.90
16663;DHT22;8445;51.270;9.434;2024-03-08T01:43:46;-0.20;66.20
16663;DHT22;8445;51.270;9.434;2024-03-08T01:46:15;-0.10;66.40
16663;DHT22;8445;51.270;9.434;2024-03-08T01:48:43;-0.20;66.50
16663;DHT22;8445;51.270;9.434;2024-03-08T01:51:09;-0.10;66.40
16663;DHT22;8445;51.270;9.434;2024-03-08T01:53:37;-0.20;66.10
16663;DHT22;8445;51.270;9.434;2024-03-08T01:56:05;-0.20;66.40
16663;DHT22;8445;51.270;9.434;2024-03-08T01:58:32;-0.20;66.50
16663;DHT22;8445;51.270;9.434;2024-03-08T02:00:59;-0.10;67.00
16663;DHT22;8445;51.270;9.434;2024-03-08T02:03:25;-0.10;67.20
16663;DHT22;8445;51.270;9.434;2024-03-08T02:05:51;0.00;66.90
16663;DHT22;8445;51.270;9.434;2024-03-08T02:08:18;0.00;66.70
16663;DHT22;8445;51.270;9.434;2024-03-08T02:10:48;-0.10;66.60
16663;DHT22;8445;51.270;9.434;2024-03-08T02:13:15;-0.10;66.70
16663;DHT22;8445;51.270;9.434;2024-03-08T02:16:03;-0.10;66.50
16663;DHT22;8445;51.270;9.434;2024-03-08T02:18:30;-0.10;66.20
16663;DHT22;8445;51.270;9.434;2024-03-08T02:21:01;-0.10;66.10
16663;DHT22;8445;51.270;9.434;2024-03-08T02:23:28;-0.10;66.10
16663;DHT22;8445;51.270;9.434;2024-03-08T02:25:56;-0.10;66.10
16663;DHT22;8445;51.270;9.434;2024-03-08T02:28:23;-0.10;66.20
16663;DHT22;8445;51.270;9.434;2024-03-08T02:30:53;-0.10;66.40
16663;DHT22;8445;51.270;9.434;2024-03-08T02:33:22;-0.20;66.20
16663;DHT22;8445;51.270;9.434;2024-03-08T02:35:50;-0.20;66.20
16663;DHT22;8445;51.270;9.434;2024-03-08T02:38:22;-0.20;66.30
16663;DHT22;8445;51.270;9.434;2024-03-08T02:40:51;-0.20;66.30
16663;DHT22;8445;51.270;9.434;2024-03-08T02:43:19;-0.30;66.60
16663;DHT22;8445;51.270;9.434;2024-03-08T02:45:47;-0.30;66.60
16663;DHT22;8445;51.270;9.434;2024-03-08T02:48:14;-0.30;66.70
16663;DHT22;8445;51.270;9.434;2024-03-08T02:50:42;-0.30;66.80
16663;DHT22;8445;51.270;9.434;2024-03-08T02:53:08;-0.30;66.70
16663;DHT22;8445;51.270;9.434;2024-03-08T02:55:35;-0.30;67.00
16663;DHT22;8445;51.270;9.434;2024-03-08T02:58:02;-0.30;67.00
16663;DHT22;8445;51.270;9.434;2024-03-08T03:00:29;-0.30;66.90
16663;DHT22;8445;51.270;9.434;2024-03-08T03:02:59;-0.30;67.00
16663;DHT22;8445;51.270;9.434;2024-03-08T03:05:28;-0.30;67.20
16663;DHT22;8445;51.270;9.434;2024-03-08T03:07:56;-0.30;67.40
16663;DHT22;8445;51.270;9.434;2024-03-08T03:10:23;-0.30;67.20
16663;DHT22;8445;51.270;9.434;2024-03-08T03:12:50;-0.30;67.20
16663;DHT22;8445;51.270;9.434;2024-03-08T03:15:16;-0.30;67.20
16663;DHT22;8445;51.270;9.434;2024-03-08T03:17:50;-0.30;67.50
16663;DHT22;8445;51.270;9.434;2024-03-08T03:20:17;-0.30;67.30
16663;DHT22;8445;51.270;9.434;2024-03-08T03:22:52;-0.30;67.30
16663;DHT22;8445;51.270;9.434;2024-03-08T03:25:19;-0.20;67.50
16663;DHT22;8445;51.270;9.434;2024-03-08T03:27:55;-0.20;67.30
16663;DHT22;8445;51.270;9.434;2024-03-08T03:30:24;-0.20;67.50
16663;DHT22;8445;51.270;9.434;2024-03-08T03:32:52;-0.10;67.60
16663;DHT22;8445;51.270;9.434;2024-03-08T03:35:21;-0.10;67.40
16663;DHT22;8445;51.270;9.434;2024-03-08T03:37:48;-0.20;67.30
16663;DHT22;8445;51.270;9.434;2024-03-08T03:40:29;-0.20;67.20
16663;DHT22;8445;51.270;9.434;2024-03-08T03:42:56;-0.10;67.30
16663;DHT22;8445;51.270;9.434;2024-03-08T03:45:26;-0.10;67.30
16663;DHT22;8445;51.270;9.434;2024-03-08T03:47:52;-0.10;67.20
16663;DHT22;8445;51.270;9.434;2024-03-08T03:50:18;-0.10;67.10
16663;DHT22;8445;51.270;9.434;2024-03-08T03:52:46;-0.10;67.10
16663;DHT22;8445;51.270;9.434;2024-03-08T03:55:13;-0.20;67.10
16663;DHT22;8445;51.270;9.434;2024-03-08T03:57:39;-0.20;66.80
16663;DHT22;8445;51.270;9.434;2024-03-08T04:00:06;-0.20;66.70
16663;DHT22;8445;51.270;9.434;2024-03-08T04:02:39;-0.30;66.60
16663;DHT22;8445;51.270;9.434;2024-03-08T04:05:07;-0.30;66.70
16663;DHT22;8445;51.270;9.434;2024-03-08T04:07:34;-0.40;66.60
16663;DHT22;8445;51.270;9.434;2024-03-08T04:10:05;-0.40;66.70
16663;DHT22;8445;51.270;9.434;2024-03-08T04:12:33;-0.50;66.80
16663;DHT22;8445;51.270;9.434;2024-03-08T04:14:59;-0.50;67.20
16663;DHT22;8445;51.270;9.434;2024-03-08T04:17:25;-0.50;67.50
16663;DHT22;8445;51.270;9.434;2024-03-08T04:19:52;-0.60;67.50
16663;DHT22;8445;51.270;9.434;2024-03-08T04:22:18;-0.60;67.60
16663;DHT22;8445;51.270;9.434;2024-03-08T04:24:44;-0.60;67.50
16663;DHT22;8445;51.270;9.434;2024-03-08T04:27:11;-0.60;68.00
16663;DHT22;8445;51.270;9.434;2024-03-08T04:29:38;-0.70;67.80
16663;DHT22;8445;51.270;9.434;2024-03-08T04:32:04;-0.70;68.20
16663;DHT22;8445;51.270;9.434;2024-03-08T04:34:32;-0.70;68.20
16663;DHT22;8445;51.270;9.434;2024-03-08T04:37:00;-0.70;68.10
16663;DHT22;8445;51.270;9.434;2024-03-08T04:39:27;-0.70;68.20
16663;DHT22;8445;51.270;9.434;2024-03-08T04:41:55;-0.70;68.20
16663;DHT22;8445;51.270;9.434;2024-03-08T04:44:24;-0.70;68.60
16663;DHT22;8445;51.270;9.434;2024-03-08T04:46:50;-0.70;68.70
16663;DHT22;8445;51.270;9.434;2024-03-08T04:49:16;-0.70;69.00
16663;DHT22;8445;51.270;9.434;2024-03-08T04:51:42;-0.70;69.10
16663;DHT22;8445;51.270;9.434;2024-03-08T04:54:10;-0.70;69.00
16663;DHT22;8445;51.270;9.434;2024-03-08T04:56:36;-0.70;69.00
16663;DHT22;8445;51.270;9.434;2024-03-08T04:59:02;-0.70;69.00
16663;DHT22;8445;51.270;9.434;2024-03-08T05:01:28;-0.70;69.00
16663;DHT22;8445;51.270;9.434;2024-03-08T05:03:54;-0.70;69.00
16663;DHT22;8445;51.270;9.434;2024-03-08T05:06:21;-0.80;68.60
16663;DHT22;8445;51.270;9.434;2024-03-08T05:08:47;-0.90;69.00
16663;DHT22;8445;51.270;9.434;2024-03-08T05:11:12;-0.90;69.00
16663;DHT22;8445;51.270;9.434;2024-03-08T05:13:40;-0.90;69.00
16663;DHT22;8445;51.270;9.434;2024-03-08T05:16:06;-1.00;69.00
16663;DHT22;8445;51.270;9.434;2024-03-08T05:18:33;-1.00;69.00
16663;DHT22;8445;51.270;9.434;2024-03-08T05:21:01;-1.00;68.80
16663;DHT22;8445;51.270;9.434;2024-03-08T05:23:30;-1.00;68.70
16663;DHT22;8445;51.270;9.434;2024-03-08T05:25:56;-1.10;68.80
16663;DHT22;8445;51.270;9.434;2024-03-08T05:28:22;-1.10;69.10
16663;DHT22;8445;51.270;9.434;2024-03-08T05:30:48;-1.10;69.50
16663;DHT22;8445;51.270;9.434;2024-03-08T05:33:14;-1.10;69.60
16663;DHT22;8445;51.270;9.434;2024-03-08T05:35:40;-1.10;69.20
16663;DHT22;8445;51.270;9.434;2024-03-08T05:38:06;-1.10;69.70
16663;DHT22;8445;51.270;9.434;2024-03-08T05:40:32;-1.10;69.60
16663;DHT22;8445;51.270;9.434;2024-03-08T05:42:59;-1.10;70.00
16663;DHT22;8445;51.270;9.434;2024-03-08T05:45:25;-1.10;69.90
16663;DHT22;8445;51.270;9.434;2024-03-08T05:47:52;-1.10;69.70
16663;DHT22;8445;51.270;9.434;2024-03-08T05:50:18;-1.10;69.40
16663;DHT22;8445;51.270;9.434;2024-03-08T05:52:45;-1.10;69.30
16663;DHT22;8445;51.270;9.434;2024-03-08T05:55:13;-1.10;69.40
16663;DHT22;8445;51.270;9.434;2024-03-08T05:57:40;-1.10;69.90
16663;DHT22;8445;51.270;9.434;2024-03-08T06:00:09;-1.10;69.50
16663;DHT22;8445;51.270;9.434;2024-03-08T06:02:41;-1.10;69.30
16663;DHT22;8445;51.270;9.434;2024-03-08T06:05:09;-1.10;69.20
16663;DHT22;8445;51.270;9.434;2024-03-08T06:07:36;-1.10;69.20
16663;DHT22;8445;51.270;9.434;2024-03-08T06:10:10;-1.10;69.10
16663;DHT22;8445;51.270;9.434;2024-03-08T06:12:45;-1.10;69.00
16663;DHT22;8445;51.270;9.434;2024-03-08T06:15:11;-1.10;69.00
16663;DHT22;8445;51.270;9.434;2024-03-08T06:17:43;-1.10;69.30
16663;DHT22;8445;51.270;9.434;2024-03-08T06:20:09;-1.10;69.30
16663;DHT22;8445;51.270;9.434;2024-03-08T06:22:39;-1.00;69.50
16663;DHT22;8445;51.270;9.434;2024-03-08T06:25:13;-0.90;69.70
16663;DHT22;8445;51.270;9.434;2024-03-08T06:27:42;-0.90;70.00
16663;DHT22;8445;51.270;9.434;2024-03-08T06:30:10;-0.80;69.80
16663;DHT22;8445;51.270;9.434;2024-03-08T06:32:36;-0.70;69.70
16663;DHT22;8445;51.270;9.434;2024-03-08T06:35:03;-0.70;69.40
16663;DHT22;8445;51.270;9.434;2024-03-08T06:37:33;-0.60;69.30
16663;DHT22;8445;51.270;9.434;2024-03-08T06:39:59;-0.60;69.20
16663;DHT22;8445;51.270;9.434;2024-03-08T06:42:29;-0.50;69.20
16663;DHT22;8445;51.270;9.434;2024-03-08T06:44:59;-0.40;69.60
16663;DHT22;8445;51.270;9.434;2024-03-08T06:47:30;-0.40;70.00
16663;DHT22;8445;51.270;9.434;2024-03-08T06:49:57;-0.30;69.90
16663;DHT22;8445;51.270;9.434;2024-03-08T06:52:23;-0.20;69.90
16663;DHT22;8445;51.270;9.434;2024-03-08T06:54:51;-0.10;69.80
16663;DHT22;8445;51.270;9.434;2024-03-08T06:57:18;-0.10;69.80
16663;DHT22;8445;51.270;9.434;2024-03-08T06:59:48;0.00;69.90
16663;DHT22;8445;51.270;9.434;2024-03-08T07:02:14;0.00;70.00
16663;DHT22;8445;51.270;9.434;2024-03-08T07:04:40;0.10;70.10
16663;DHT22;8445;51.270;9.434;2024-03-08T07:07:07;0.20;69.90
16663;DHT22;8445;51.270;9.434;2024-03-08T07:09:36;0.30;69.80
16663;DHT22;8445;51.270;9.434;2024-03-08T07:12:02;0.40;69.60
16663;DHT22;8445;51.270;9.434;2024-03-08T07:14:28;0.50;69.40
16663;DHT22;8445;51.270;9.434;2024-03-08T07:16:54;0.60;69.30
16663;DHT22;8445;51.270;9.434;2024-03-08T07:19:20;0.60;69.40
16663;DHT22;8445;51.270;9.434;2024-03-08T07:21:50;0.80;69.30
16663;DHT22;8445;51.270;9.434;2024-03-08T07:24:16;0.80;69.00
16663;DHT22;8445;51.270;9.434;2024-03-08T07:27:05;1.00;68.80
16663;DHT22;8445;51.270;9.434;2024-03-08T07:29:34;1.00;68.60
16663;DHT22;8445;51.270;9.434;2024-03-08T07:32:00;1.10;68.60
16663;DHT22;8445;51.270;9.434;2024-03-08T07:34:26;1.20;68.40
16663;DHT22;8445;51.270;9.434;2024-03-08T07:36:52;1.40;68.20
16663;DHT22;8445;51.270;9.434;2024-03-08T07:39:18;1.40;67.90
16663;DHT22;8445;51.270;9.434;2024-03-08T07:41:44;1.50;67.70
16663;DHT22;8445;51.270;9.434;2024-03-08T07:44:11;1.60;67.50
16663;DHT22;8445;51.270;9.434;2024-03-08T07:46:38;1.70;67.50
16663;DHT22;8445;51.270;9.434;2024-03-08T07:49:04;1.70;67.30
16663;DHT22;8445;51.270;9.434;2024-03-08T07:51:30;1.80;67.30
16663;DHT22;8445;51.270;9.434;2024-03-08T07:53:56;1.90;67.20
16663;DHT22;8445;51.270;9.434;2024-03-08T07:56:22;1.90;67.20
16663;DHT22;8445;51.270;9.434;2024-03-08T07:58:48;2.00;67.00
16663;DHT22;8445;51.270;9.434;2024-03-08T08:01:17;2.00;66.90
16663;DHT22;8445;51.270;9.434;2024-03-08T08:03:44;2.10;66.80
16663;DHT22;8445;51.270;9.434;2024-03-08T08:06:12;2.20;66.60
16663;DHT22;8445;51.270;9.434;2024-03-08T08:08:44;2.30;66.60
16663;DHT22;8445;51.270;9.434;2024-03-08T08:11:10;2.40;66.60
16663;DHT22;8445;51.270;9.434;2024-03-08T08:13:42;2.40;66.30
16663;DHT22;8445;51.270;9.434;2024-03-08T08:16:09;2.50;66.30
16663;DHT22;8445;51.270;9.434;2024-03-08T08:18:36;2.50;66.20
16663;DHT22;8445;51.270;9.434;2024-03-08T08:21:02;2.70;65.90
16663;DHT22;8445;51.270;9.434;2024-03-08T08:23:30;2.70;65.70
16663;DHT22;8445;51.270;9.434;2024-03-08T08:25:56;2.80;65.30
16663;DHT22;8445;51.270;9.434;2024-03-08T08:28:22;2.90;65.10
16663;DHT22;8445;51.270;9.434;2024-03-08T08:30:47;3.00;64.90
16663;DHT22;8445;51.270;9.434;2024-03-08T08:33:15;3.10;64.70
16663;DHT22;8445;51.270;9.434;2024-03-08T08:35:41;3.10;64.70
16663;DHT22;8445;51.270;9.434;2024-03-08T08:38:08;3.30;65.00
16663;DHT22;8445;51.270;9.434;2024-03-08T08:40:37;3.40;64.20
16663;DHT22;8445;51.270;9.434;2024-03-08T08:43:04;3.50;63.60
16663;DHT22;8445;51.270;9.434;2024-03-08T08:45:33;3.50;63.30
16663;DHT22;8445;51.270;9.434;2024-03-08T08:48:05;3.50;63.70
16663;DHT22;8445;51.270;9.434;2024-03-08T08:50:33;3.70;63.60
16663;DHT22;8445;51.270;9.434;2024-03-08T08:53:02;3.80;63.20
16663;DHT22;8445;51.270;9.434;2024-03-08T08:55:33;4.00;62.50
16663;DHT22;8445;51.270;9.434;2024-03-08T08:58:02;4.00;62.20
16663;DHT22;8445;51.270;9.434;2024-03-08T09:00:29;4.10;62.00
16663;DHT22;8445;51.270;9.434;2024-03-08T09:02:57;4.10;62.10
16663;DHT22;8445;51.270;9.434;2024-03-08T09:05:24;4.20;62.20
16663;DHT22;8445;51.270;9.434;2024-03-08T09:07:50;4.20;62.00
16663;DHT22;8445;51.270;9.434;2024-03-08T09:10:16;4.30;62.00
16663;DHT22;8445;51.270;9.434;2024-03-08T09:12:44;4.40;61.90
16663;DHT22;8445;51.270;9.434;2024-03-08T09:15:10;4.40;61.80
16663;DHT22;8445;51.270;9.434;2024-03-08T09:17:38;4.50;61.90
16663;DHT22;8445;51.270;9.434;2024-03-08T09:20:10;4.60;61.70
16663;DHT22;8445;51.270;9.434;2024-03-08T09:22:47;4.70;61.20
16663;DHT22;8445;51.270;9.434;2024-03-08T09:25:17;4.70;61.10
16663;DHT22;8445;51.270;9.434;2024-03-08T09:27:51;4.80;61.30
16663;DHT22;8445;51.270;9.434;2024-03-08T09:30:17;4.90;61.40
16663;DHT22;8445;51.270;9.434;2024-03-08T09:32:44;5.00;61.40
16663;DHT22;8445;51.270;9.434;2024-03-08T09:35:10;5.00;61.00
16663;DHT22;8445;51.270;9.434;2024-03-08T09:37:37;5.10;60.50
16663;DHT22;8445;51.270;9.434;2024-03-08T09:40:07;5.20;60.40
16663;DHT22;8445;51.270;9.434;2024-03-08T09:42:46;5.30;60.40
16663;DHT22;8445;51.270;9.434;2024-03-08T09:45:17;5.30;59.80
16663;DHT22;8445;51.270;9.434;2024-03-08T09:47:52;5.40;59.60
16663;DHT22;8445;51.270;9.434;2024-03-08T09:50:23;5.50;58.90
16663;DHT22;8445;51.270;9.434;2024-03-08T09:52:56;5.60;58.90
16663;DHT22;8445;51.270;9.434;2024-03-08T09:55:25;5.60;58.30
16663;DHT22;8445;51.270;9.434;2024-03-08T09:57:58;5.70;58.30
16663;DHT22;8445;51.270;9.434;2024-03-08T10:00:44;5.80;58.20
16663;DHT22;8445;51.270;9.434;2024-03-08T10:03:11;5.80;58.60
16663;DHT22;8445;51.270;9.434;2024-03-08T10:05:41;5.90;58.70
16663;DHT22;8445;51.270;9.434;2024-03-08T10:08:07;6.00;58.30
16663;DHT22;8445;51.270;9.434;2024-03-08T10:10:39;6.20;57.40
16663;DHT22;8445;51.270;9.434;2024-03-08T10:13:06;6.30;56.90
16663;DHT22;8445;51.270;9.434;2024-03-08T10:15:33;6.30;56.90
16663;DHT22;8445;51.270;9.434;2024-03-08T10:17:59;6.40;56.90
16663;DHT22;8445;51.270;9.434;2024-03-08T10:20:25;6.50;56.60
16663;DHT22;8445;51.270;9.434;2024-03-08T10:22:52;6.60;56.10
16663;DHT22;8445;51.270;9.434;2024-03-08T10:25:19;6.60;56.60
16663;DHT22;8445;51.270;9.434;2024-03-08T10:27:45;6.70;56.50
16663;DHT22;8445;51.270;9.434;2024-03-08T10:30:16;6.80;55.40
16663;DHT22;8445;51.270;9.434;2024-03-08T10:32:49;6.90;54.90
16663;DHT22;8445;51.270;9.434;2024-03-08T10:35:17;6.90;54.60
16663;DHT22;8445;51.270;9.434;2024-03-08T10:37:50;6.90;54.50
16663;DHT22;8445;51.270;9.434;2024-03-08T10:40:35;7.00;54.90
16663;DHT22;8445;51.270;9.434;2024-03-08T10:43:12;7.00;55.30
16663;DHT22;8445;51.270;9.434;2024-03-08T10:45:54;7.20;54.70
16663;DHT22;8445;51.270;9.434;2024-03-08T10:48:44;7.30;54.60
16663;DHT22;8445;51.270;9.434;2024-03-08T10:51:15;7.40;54.00
16663;DHT22;8445;51.270;9.434;2024-03-08T10:53:42;7.50;54.20
16663;DHT22;8445;51.270;9.434;2024-03-08T10:56:11;7.50;54.00
16663;DHT22;8445;51.270;9.434;2024-03-08T10:58:40;7.60;53.70
16663;DHT22;8445;51.270;9.434;2024-03-08T11:01:10;7.80;53.40
16663;DHT22;8445;51.270;9.434;2024-03-08T11:06:07;7.80;52.90
16663;DHT22;8445;51.270;9.434;2024-03-08T11:08:37;7.80;53.20
16663;DHT22;8445;51.270;9.434;2024-03-08T11:11:04;7.90;53.20
16663;DHT22;8445;51.270;9.434;2024-03-08T11:16:11;8.00;52.90
16663;DHT22;8445;51.270;9.434;2024-03-08T11:19:06;8.10;53.10
16663;DHT22;8445;51.270;9.434;2024-03-08T11:21:36;8.20;51.70
16663;DHT22;8445;51.270;9.434;2024-03-08T11:24:10;8.30;51.00
16663;DHT22;8445;51.270;9.434;2024-03-08T11:26:39;8.20;50.80
16663;DHT22;8445;51.270;9.434;2024-03-08T11:32:09;8.10;51.10
16663;DHT22;8445;51.270;9.434;2024-03-08T11:34:43;8.00;51.20
16663;DHT22;8445;51.270;9.434;2024-03-08T11:37:17;8.00;51.20
16663;DHT22;8445;51.270;9.434;2024-03-08T11:39:48;8.00;51.60
16663;DHT22;8445;51.270;9.434;2024-03-08T11:42:15;8.00;51.20
16663;DHT22;8445;51.270;9.434;2024-03-08T11:44:46;8.00;51.50
16663;DHT22;8445;51.270;9.434;2024-03-08T11:47:13;8.00;50.90
16663;DHT22;8445;51.270;9.434;2024-03-08T11:49:43;8.00;50.90
16663;DHT22;8445;51.270;9.434;2024-03-08T11:52:14;8.00;51.40
16663;DHT22;8445;51.270;9.434;2024-03-08T11:54:43;8.00;51.40
16663;DHT22;8445;51.270;9.434;2024-03-08T11:57:18;8.00;51.20
16663;DHT22;8445;51.270;9.434;2024-03-08T11:59:54;7.90;51.50
16663;DHT22;8445;51.270;9.434;2024-03-08T12:02:22;7.90;52.00
16663;DHT22;8445;51.270;9.434;2024-03-08T12:04:59;8.00;52.40
16663;DHT22;8445;51.270;9.434;2024-03-08T12:07:29;8.00;52.00
16663;DHT22;8445;51.270;9.434;2024-03-08T12:12:46;8.00;52.10
16663;DHT22;8445;51.270;9.434;2024-03-08T12:15:16;8.10;52.00
16663;DHT22;8445;51.270;9.434;2024-03-08T12:17:44;8.10;52.10
16663;DHT22;8445;51.270;9.434;2024-03-08T12:22:53;8.20;52.10
16663;DHT22;8445;51.270;9.434;2024-03-08T12:25:31;8.20;52.00
16663;DHT22;8445;51.270;9.434;2024-03-08T12:28:11;8.20;51.90
16663;DHT22;8445;51.270;9.434;2024-03-08T12:30:50;8.30;51.80
16663;DHT22;8445;51.270;9.434;2024-03-08T12:33:19;8.30;51.60
16663;DHT22;8445;51.270;9.434;2024-03-08T12:35:53;8.30;51.60
16663;DHT22;8445;51.270;9.434;2024-03-08T12:38:21;8.30;52.00
16663;DHT22;8445;51.270;9.434;2024-03-08T12:40:59;8.30;52.00
16663;DHT22;8445;51.270;9.434;2024-03-08T12:43:26;8.30;51.70
16663;DHT22;8445;51.270;9.434;2024-03-08T12:45:55;8.40;51.80
16663;DHT22;8445;51.270;9.434;2024-03-08T12:48:21;8.40;52.20
16663;DHT22;8445;51.270;9.434;2024-03-08T12:50:47;8.40;52.20
16663;DHT22;8445;51.270;9.434;2024-03-08T12:53:14;8.50;52.20
16663;DHT22;8445;51.270;9.434;2024-03-08T12:55:40;8.50;51.90
16663;DHT22;8445;51.270;9.434;2024-03-08T12:58:06;8.50;51.90
16663;DHT22;8445;51.270;9.434;2024-03-08T13:00:35;8.50;52.10
16663;DHT22;8445;51.270;9.434;2024-03-08T13:03:04;8.50;52.00
16663;DHT22;8445;51.270;9.434;2024-03-08T13:05:32;8.50;52.10
16663;DHT22;8445;51.270;9.434;2024-03-08T13:07:58;8.60;52.30
16663;DHT22;8445;51.270;9.434;2024-03-08T13:10:23;8.60;52.00
16663;DHT22;8445;51.270;9.434;2024-03-08T13:12:49;8.60;51.70
16663;DHT22;8445;51.270;9.434;2024-03-08T13:15:16;8.60;51.60
16663;DHT22;8445;51.270;9.434;2024-03-08T13:17:47;8.60;52.20
16663;DHT22;8445;51.270;9.434;2024-03-08T13:20:14;8.70;52.50
16663;DHT22;8445;51.270;9.434;2024-03-08T13:22:48;8.80;52.30
16663;DHT22;8445;51.270;9.434;2024-03-08T13:25:18;8.90;52.10
16663;DHT22;8445;51.270;9.434;2024-03-08T13:27:53;8.90;51.90
16663;DHT22;8445;51.270;9.434;2024-03-08T13:30:21;9.00;51.20
16663;DHT22;8445;51.270;9.434;2024-03-08T13:32:54;9.00;51.40
16663;DHT22;8445;51.270;9.434;2024-03-08T13:35:21;9.00;51.20
16663;DHT22;8445;51.270;9.434;2024-03-08T13:37:56;9.00;51.20
16663;DHT22;8445;51.270;9.434;2024-03-08T13:40:28;9.00;51.20
16663;DHT22;8445;51.270;9.434;2024-03-08T13:42:54;9.00;51.10
16663;DHT22;8445;51.270;9.434;2024-03-08T13:45:23;9.00;50.90
16663;DHT22;8445;51.270;9.434;2024-03-08T13:47:50;9.00;51.00
16663;DHT22;8445;51.270;9.434;2024-03-08T13:50:19;9.00;51.10
16663;DHT22;8445;51.270;9.434;2024-03-08T13:52:49;9.10;51.20
16663;DHT22;8445;51.270;9.434;2024-03-08T13:55:20;9.10;50.70
16663;DHT22;8445;51.270;9.434;2024-03-08T13:57:52;9.20;50.80
16663;DHT22;8445;51.270;9.434;2024-03-08T14:00:18;9.20;50.80
16663;DHT22;8445;51.270;9.434;2024-03-08T14:02:51;9.20;50.80
16663;DHT22;8445;51.270;9.434;2024-03-08T14:05:19;9.30;50.90
16663;DHT22;8445;51.270;9.434;2024-03-08T14:07:46;9.30;50.60
16663;DHT22;8445;51.270;9.434;2024-03-08T14:10:14;9.40;50.70
16663;DHT22;8445;51.270;9.434;2024-03-08T14:12:41;9.40;50.80
16663;DHT22;8445;51.270;9.434;2024-03-08T14:15:12;9.40;50.30
16663;DHT22;8445;51.270;9.434;2024-03-08T14:17:38;9.40;50.00
16663;DHT22;8445;51.270;9.434;2024-03-08T14:20:04;9.40;50.20
16663;DHT22;8445;51.270;9.434;2024-03-08T14:22:31;9.40;50.40
16663;DHT22;8445;51.270;9.434;2024-03-08T14:24:57;9.30;50.60
16663;DHT22;8445;51.270;9.434;2024-03-08T14:27:23;9.30;50.20
16663;DHT22;8445;51.270;9.434;2024-03-08T14:29:49;9.40;50.30
16663;DHT22;8445;51.270;9.434;2024-03-08T14:32:16;9.40;50.90
16663;DHT22;8445;51.270;9.434;2024-03-08T14:34:45;9.40;50.60
16663;DHT22;8445;51.270;9.434;2024-03-08T14:37:11;9.40;50.30
16663;DHT22;8445;51.270;9.434;2024-03-08T14:39:39;9.40;50.30
16663;DHT22;8445;51.270;9.434;2024-03-08T14:42:05;9.40;50.40
16663;DHT22;8445;51.270;9.434;2024-03-08T14:44:33;9.40;50.70
16663;DHT22;8445;51.270;9.434;2024-03-08T14:47:00;9.40;50.60
16663;DHT22;8445;51.270;9.434;2024-03-08T14:49:26;9.30;50.50
16663;DHT22;8445;51.270;9.434;2024-03-08T14:51:55;9.40;50.30
16663;DHT22;8445;51.270;9.434;2024-03-08T14:54:23;9.30;50.20
16663;DHT22;8445;51.270;9.434;2024-03-08T14:56:50;9.30;50.40
16663;DHT22;8445;51.270;9.434;2024-03-08T14:59:16;9.20;50.60
16663;DHT22;8445;51.270;9.434;2024-03-08T15:01:42;9.20;50.90
16663;DHT22;8445;51.270;9.434;2024-03-08T15:04:11;9.20;51.10
16663;DHT22;8445;51.270;9.434;2024-03-08T15:06:38;9.20;51.00
16663;DHT22;8445;51.270;9.434;2024-03-08T15:09:07;9.20;51.00
16663;DHT22;8445;51.270;9.434;2024-03-08T15:11:46;9.20;51.10
16663;DHT22;8445;51.270;9.434;2024-03-08T15:14:19;9.20;50.90
16663;DHT22;8445;51.270;9.434;2024-03-08T15:17:11;9.20;51.00
16663;DHT22;8445;51.270;9.434;2024-03-08T15:19:50;9.20;51.10
16663;DHT22;8445;51.270;9.434;2024-03-08T15:22:17;9.20;51.20
16663;DHT22;8445;51.270;9.434;2024-03-08T15:24:44;9.20;51.40
16663;DHT22;8445;51.270;9.434;2024-03-08T15:27:10;9.20;51.50
16663;DHT22;8445;51.270;9.434;2024-03-08T15:29:36;9.20;51.50
16663;DHT22;8445;51.270;9.434;2024-03-08T15:32:02;9.20;51.50
16663;DHT22;8445;51.270;9.434;2024-03-08T15:34:29;9.20;51.40
16663;DHT22;8445;51.270;9.434;2024-03-08T15:36:57;9.20;51.20
16663;DHT22;8445;51.270;9.434;2024-03-08T15:39:27;9.10;51.30
16663;DHT22;8445;51.270;9.434;2024-03-08T15:41:53;9.00;51.50
16663;DHT22;8445;51.270;9.434;2024-03-08T15:44:23;9.00;51.50
16663;DHT22;8445;51.270;9.434;2024-03-08T15:46:52;9.00;51.40
16663;DHT22;8445;51.270;9.434;2024-03-08T15:49:18;9.00;51.30
16663;DHT22;8445;51.270;9.434;2024-03-08T15:51:46;9.00;51.40
16663;DHT22;8445;51.270;9.434;2024-03-08T15:54:12;9.00;51.20
16663;DHT22;8445;51.270;9.434;2024-03-08T15:56:38;9.00;51.00
16663;DHT22;8445;51.270;9.434;2024-03-08T15:59:04;9.00;51.20
16663;DHT22;8445;51.270;9.434;2024-03-08T16:01:32;8.90;51.30
16663;DHT22;8445;51.270;9.434;2024-03-08T16:03:58;8.90;51.40
16663;DHT22;8445;51.270;9.434;2024-03-08T16:06:24;8.80;51.60
16663;DHT22;8445;51.270;9.434;2024-03-08T16:08:51;8.80;51.50
16663;DHT22;8445;51.270;9.434;2024-03-08T16:11:19;8.80;51.50
16663;DHT22;8445;51.270;9.434;2024-03-08T16:13:47;8.60;51.60
16663;DHT22;8445;51.270;9.434;2024-03-08T16:16:13;8.60;51.70
16663;DHT22;8445;51.270;9.434;2024-03-08T16:18:38;8.60;51.80